createdAt,value
2023-06-20T00:00:58.490Z,19.90
2023-06-20T00:03:25.451Z,19.90
2023-06-20T00:05:52.427Z,19.90
2023-06-20T00:08:19.352Z,19.90
2023-06-20T00:10:46.354Z,19.80
2023-06-20T00:13:13.278Z,19.70
2023-06-20T00:15:42.606Z,19.70
2023-06-20T00:18:09.738Z,19.70
2023-06-20T00:20:39.550Z,19.70
2023-06-20T00:23:07.819Z,19.60
2023-06-20T00:25:34.775Z,19.60
2023-06-20T00:28:03.450Z,19.60
2023-06-20T00:30:30.534Z,19.60
2023-06-20T00:32:59.999Z,19.50
2023-06-20T00:35:27.727Z,19.50
2023-06-20T00:37:55.719Z,19.40
2023-06-20T00:40:22.685Z,19.40
2023-06-20T00:42:49.550Z,19.30
2023-06-20T00:45:31.676Z,19.20
2023-06-20T00:48:04.804Z,19.10
2023-06-20T00:50:32.803Z,19.00
2023-06-20T00:53:05.234Z,19.00
2023-06-20T00:55:34.226Z,18.90
2023-06-20T00:58:03.957Z,18.70
2023-06-20T01:00:34.621Z,18.60
2023-06-20T01:03:13.152Z,18.60
2023-06-20T01:05:44.264Z,18.40
2023-06-20T01:08:23.176Z,18.40
2023-06-20T01:11:06.208Z,18.40
2023-06-20T01:14:23.293Z,18.30
2023-06-20T01:17:22.538Z,18.30
2023-06-20T01:20:14.254Z,18.20
2023-06-20T01:23:14.921Z,18.20
2023-06-20T01:26:33.203Z,18.20
2023-06-20T01:29:13.738Z,18.20
2023-06-20T01:31:45.649Z,18.20
2023-06-20T01:34:21.307Z,18.20
2023-06-20T01:37:00.916Z,18.20
2023-06-20T01:39:33.992Z,18.20
2023-06-20T01:42:04.648Z,18.20
2023-06-20T01:44:34.306Z,18.20
2023-06-20T01:47:04.110Z,18.20
2023-06-20T01:49:32.886Z,18.20
2023-06-20T01:52:01.386Z,18.20
2023-06-20T01:54:31.382Z,18.30
2023-06-20T01:56:59.290Z,18.30
2023-06-20T01:59:28.776Z,18.30
2023-06-20T02:01:58.081Z,18.40
2023-06-20T02:04:26.544Z,18.40
2023-06-20T02:06:54.052Z,18.40
2023-06-20T02:09:21.088Z,18.30
2023-06-20T02:11:48.933Z,18.30
2023-06-20T02:14:16.741Z,18.30
2023-06-20T02:16:44.833Z,18.30
2023-06-20T02:19:11.779Z,18.00
2023-06-20T02:21:39.427Z,17.60
2023-06-20T02:24:07.896Z,17.70
2023-06-20T02:26:40.896Z,17.70
2023-06-20T02:29:09.532Z,17.80
2023-06-20T02:31:48.476Z,17.70
2023-06-20T02:34:19.750Z,17.70
2023-06-20T02:36:48.083Z,17.60
2023-06-20T02:39:15.347Z,17.60
2023-06-20T02:41:43.637Z,17.70
2023-06-20T02:44:10.867Z,17.70
2023-06-20T02:47:04.220Z,17.60
2023-06-20T02:50:14.873Z,17.60
2023-06-20T02:52:49.731Z,17.60
2023-06-20T02:55:32.208Z,17.60
2023-06-20T02:58:02.264Z,17.60
2023-06-20T03:00:30.765Z,17.60
2023-06-20T03:03:07.660Z,17.70
2023-06-20T03:05:40.076Z,17.70
2023-06-20T03:08:08.893Z,17.90
2023-06-20T03:10:36.315Z,17.90
2023-06-20T03:13:05.832Z,17.80
2023-06-20T03:15:33.636Z,17.80
2023-06-20T03:18:01.446Z,17.90
2023-06-20T03:20:29.722Z,17.90
2023-06-20T03:22:56.818Z,17.90
2023-06-20T03:25:23.971Z,18.00
2023-06-20T03:27:51.151Z,18.00
2023-06-20T03:30:18.069Z,18.00
2023-06-20T03:32:45.054Z,18.10
2023-06-20T03:35:11.983Z,18.20
2023-06-20T03:37:39.078Z,18.20
2023-06-20T03:40:07.098Z,18.20
2023-06-20T03:42:34.061Z,18.20
2023-06-20T03:45:00.912Z,18.20
2023-06-20T03:47:27.805Z,18.30
2023-06-20T03:49:54.894Z,18.30
2023-06-20T03:52:21.832Z,18.30
2023-06-20T03:54:48.758Z,18.30
2023-06-20T03:57:15.690Z,18.30
2023-06-20T03:59:43.058Z,18.40
2023-06-20T04:02:09.916Z,18.40
2023-06-20T04:04:38.256Z,18.50
2023-06-20T04:07:05.247Z,18.50
2023-06-20T04:09:32.140Z,18.50
2023-06-20T04:11:59.075Z,18.50
2023-06-20T04:14:26.011Z,18.50
2023-06-20T04:16:53.000Z,18.50
2023-06-20T04:19:20.077Z,18.60
2023-06-20T04:21:46.973Z,18.70
2023-06-20T04:24:13.875Z,18.60
2023-06-20T04:26:40.734Z,18.70
2023-06-20T04:29:07.692Z,18.60
2023-06-20T04:31:34.606Z,18.60
2023-06-20T04:34:01.580Z,18.60
2023-06-20T04:36:31.156Z,18.70
2023-06-20T04:38:58.103Z,18.80
2023-06-20T04:41:25.010Z,18.90
2023-06-20T04:43:51.849Z,19.00
2023-06-20T04:46:18.726Z,19.20
2023-06-20T04:48:47.257Z,19.30
2023-06-20T04:51:15.084Z,19.30
2023-06-20T04:53:41.991Z,19.20
2023-06-20T04:56:08.862Z,19.30
2023-06-20T04:58:35.787Z,19.50
2023-06-20T05:01:02.680Z,19.70
2023-06-20T05:03:29.897Z,19.70
2023-06-20T05:05:56.894Z,19.80
2023-06-20T05:08:23.845Z,19.90
2023-06-20T05:10:50.832Z,19.80
2023-06-20T05:13:17.833Z,19.80
2023-06-20T05:15:44.782Z,19.80
2023-06-20T05:18:11.706Z,19.90
2023-06-20T05:20:38.560Z,19.80
2023-06-20T05:23:05.506Z,19.60
2023-06-20T05:25:32.626Z,19.80
2023-06-20T05:27:59.566Z,20.00
2023-06-20T05:30:26.645Z,20.30
2023-06-20T05:32:53.993Z,20.40
2023-06-20T05:35:20.961Z,20.50
2023-06-20T05:37:50.731Z,20.70
2023-06-20T05:40:18.001Z,20.90
2023-06-20T05:42:44.991Z,21.00
2023-06-20T05:45:12.214Z,21.20
2023-06-20T05:47:39.253Z,21.40
2023-06-20T05:50:07.591Z,21.60
2023-06-20T05:52:36.987Z,21.90
2023-06-20T05:55:05.265Z,21.80
2023-06-20T05:57:32.152Z,22.00
2023-06-20T05:59:59.126Z,22.30
2023-06-20T06:02:26.085Z,22.40
2023-06-20T06:04:53.170Z,22.30
2023-06-20T06:07:20.165Z,22.20
2023-06-20T06:09:48.457Z,22.00
2023-06-20T06:12:15.899Z,22.00
2023-06-20T06:14:43.139Z,22.20
2023-06-20T06:17:10.087Z,22.60
2023-06-20T06:19:37.181Z,22.80
2023-06-20T06:22:04.383Z,23.10
2023-06-20T06:24:31.420Z,23.40
2023-06-20T06:26:58.316Z,23.30
2023-06-20T06:29:26.845Z,23.20
2023-06-20T06:31:55.164Z,23.40
2023-06-20T06:34:22.279Z,23.40
2023-06-20T06:36:50.726Z,23.40
2023-06-20T06:39:19.450Z,23.50
2023-06-20T06:41:49.266Z,23.30
2023-06-20T06:44:16.802Z,23.20
2023-06-20T06:46:43.794Z,23.00
2023-06-20T06:49:10.861Z,23.00
2023-06-20T06:51:39.965Z,23.20
2023-06-20T06:54:07.305Z,23.50
2023-06-20T06:56:34.220Z,23.50
2023-06-20T06:59:02.312Z,24.00
2023-06-20T07:01:30.056Z,24.00
2023-06-20T07:03:57.996Z,24.10
2023-06-20T07:06:25.255Z,24.20
2023-06-20T07:08:53.787Z,24.10
2023-06-20T07:11:20.862Z,23.70
2023-06-20T07:13:47.876Z,23.90
2023-06-20T07:16:15.288Z,23.90
2023-06-20T07:18:42.289Z,23.80
2023-06-20T07:21:09.177Z,23.80
2023-06-20T07:23:36.063Z,23.50
2023-06-20T07:26:02.969Z,23.40
2023-06-20T07:28:30.242Z,23.60
2023-06-20T07:30:57.656Z,23.60
2023-06-20T07:33:24.671Z,23.50
2023-06-20T07:35:51.656Z,23.50
2023-06-20T07:38:19.941Z,23.50
2023-06-20T07:40:47.704Z,23.60
2023-06-20T07:43:14.637Z,23.50
2023-06-20T07:45:41.621Z,23.60
2023-06-20T07:48:08.599Z,23.50
2023-06-20T07:50:35.485Z,23.50
2023-06-20T07:53:04.047Z,23.50
2023-06-20T07:55:31.568Z,23.50
2023-06-20T07:57:59.587Z,23.50
2023-06-20T08:00:27.680Z,23.50
2023-06-20T08:02:54.812Z,23.60
2023-06-20T08:05:22.076Z,23.70
2023-06-20T08:07:50.633Z,24.00
2023-06-20T08:10:18.689Z,24.20
2023-06-20T08:12:45.807Z,24.40
2023-06-20T08:15:12.873Z,24.40
2023-06-20T08:17:39.901Z,24.60
2023-06-20T08:20:10.136Z,24.90
2023-06-20T08:22:37.618Z,24.60
2023-06-20T08:25:05.540Z,24.60
2023-06-20T08:27:33.419Z,25.00
2023-06-20T08:30:00.352Z,25.10
2023-06-20T08:32:27.324Z,25.50
2023-06-20T08:34:55.999Z,25.80
2023-06-20T08:37:24.434Z,26.30
2023-06-20T08:39:51.481Z,27.00
2023-06-20T08:42:18.371Z,27.30
2023-06-20T08:44:56.114Z,27.50
2023-06-20T08:47:24.188Z,27.70
2023-06-20T08:49:51.100Z,27.40
2023-06-20T08:52:29.722Z,27.50
2023-06-20T08:54:57.440Z,27.80
2023-06-20T08:57:24.953Z,28.00
2023-06-20T08:59:53.964Z,28.00
2023-06-20T09:02:22.955Z,28.20
2023-06-20T09:05:05.415Z,28.30
2023-06-20T09:07:40.387Z,28.80
2023-06-20T09:10:09.677Z,29.00
2023-06-20T09:12:54.302Z,29.30
2023-06-20T09:15:24.038Z,28.40
2023-06-20T09:17:52.957Z,28.60
2023-06-20T09:20:21.243Z,28.80
2023-06-20T09:22:48.250Z,28.90
2023-06-20T09:25:22.539Z,29.00
2023-06-20T09:27:49.937Z,29.30
2023-06-20T09:30:16.859Z,29.70
2023-06-20T09:32:44.796Z,29.90
2023-06-20T09:35:15.077Z,30.20
2023-06-20T09:37:43.410Z,30.30
2023-06-20T09:40:15.772Z,30.50
2023-06-20T09:42:45.606Z,30.90
2023-06-20T09:45:15.775Z,30.50
2023-06-20T09:47:44.916Z,30.20
2023-06-20T09:50:17.259Z,30.10
2023-06-20T09:52:55.027Z,30.30
2023-06-20T09:55:24.475Z,30.50
2023-06-20T09:57:54.843Z,30.40
2023-06-20T10:00:25.387Z,30.30
2023-06-20T10:02:54.654Z,30.60
2023-06-20T10:05:22.630Z,30.60
2023-06-20T10:07:50.614Z,31.00
2023-06-20T10:10:18.790Z,30.50
2023-06-20T10:12:47.876Z,30.50
2023-06-20T10:15:16.087Z,30.50
2023-06-20T10:17:47.618Z,31.00
2023-06-20T10:20:30.089Z,31.30
2023-06-20T10:23:01.871Z,31.90
2023-06-20T10:25:29.139Z,31.60
2023-06-20T10:28:03.568Z,31.60
2023-06-20T10:30:51.666Z,31.80
2023-06-20T10:33:32.381Z,31.60
2023-06-20T10:36:13.780Z,31.70
2023-06-20T10:39:00.826Z,31.90
2023-06-20T10:41:29.413Z,32.20
2023-06-20T10:44:01.238Z,32.30
2023-06-20T10:46:49.019Z,32.30
2023-06-20T10:49:16.054Z,32.10
2023-06-20T10:51:46.980Z,32.20
2023-06-20T10:54:15.203Z,32.10
2023-06-20T10:56:44.499Z,32.10
2023-06-20T10:59:16.298Z,31.20
2023-06-20T11:01:43.567Z,31.60
2023-06-20T11:04:12.676Z,32.00
2023-06-20T11:06:40.753Z,32.30
2023-06-20T11:09:20.971Z,32.80
2023-06-20T11:11:49.426Z,32.30
2023-06-20T11:14:20.640Z,32.70
2023-06-20T11:16:49.968Z,33.40
2023-06-20T11:21:55.339Z,33.70
2023-06-20T11:24:22.532Z,34.00
2023-06-20T11:26:49.597Z,34.40
2023-06-20T11:29:17.001Z,34.30
2023-06-20T11:31:44.825Z,33.90
2023-06-20T11:34:15.505Z,33.70
2023-06-20T11:36:42.495Z,33.80
2023-06-20T11:39:14.618Z,33.80
2023-06-20T11:41:41.860Z,33.90
2023-06-20T11:44:25.364Z,33.90
2023-06-20T11:46:52.505Z,34.30
2023-06-20T11:49:32.909Z,34.50
2023-06-20T11:52:00.579Z,34.50
2023-06-20T11:54:27.627Z,34.70
2023-06-20T11:56:55.531Z,34.90
2023-06-20T11:59:26.053Z,34.90
2023-06-20T12:01:53.948Z,34.90
2023-06-20T12:04:22.444Z,34.70
2023-06-20T12:06:54.348Z,35.00
2023-06-20T12:09:24.731Z,34.30
2023-06-20T12:11:57.242Z,34.90
2023-06-20T12:14:26.662Z,35.10
2023-06-20T12:16:53.922Z,34.10
2023-06-20T12:19:21.287Z,34.00
2023-06-20T12:21:48.933Z,34.60
2023-06-20T12:24:17.323Z,34.90
2023-06-20T12:26:47.923Z,34.70
2023-06-20T12:29:15.005Z,34.90
2023-06-20T12:31:41.890Z,35.20
2023-06-20T12:34:09.153Z,34.30
2023-06-20T12:36:36.223Z,34.30
2023-06-20T12:39:04.606Z,34.40
2023-06-20T12:41:36.259Z,35.10
2023-06-20T12:44:04.365Z,35.40
2023-06-20T12:46:31.602Z,35.50
2023-06-20T12:48:59.550Z,35.30
2023-06-20T12:51:26.619Z,35.40
2023-06-20T12:53:53.557Z,35.40
2023-06-20T12:56:21.105Z,35.70
2023-06-20T12:58:48.040Z,35.70
2023-06-20T13:01:14.936Z,35.50
2023-06-20T13:03:41.972Z,35.40
2023-06-20T13:06:11.375Z,35.60
2023-06-20T13:08:40.562Z,35.40
2023-06-20T13:11:07.625Z,35.30
2023-06-20T13:13:34.631Z,35.50
2023-06-20T13:16:01.743Z,35.80
2023-06-20T13:18:28.910Z,36.10
2023-06-20T13:20:55.883Z,36.00
2023-06-20T13:23:23.008Z,35.80
2023-06-20T13:25:49.922Z,36.00
2023-06-20T13:28:16.827Z,35.80
2023-06-20T13:30:44.653Z,35.60
2023-06-20T13:33:11.594Z,35.70
2023-06-20T13:35:39.162Z,36.00
2023-06-20T13:38:07.767Z,35.80
2023-06-20T13:40:35.017Z,35.60
2023-06-20T13:43:06.252Z,35.80
2023-06-20T13:45:34.476Z,35.90
2023-06-20T13:48:02.386Z,35.90
2023-06-20T13:50:29.580Z,35.60
2023-06-20T13:52:56.708Z,35.40
2023-06-20T13:55:23.667Z,35.50
2023-06-20T13:57:51.499Z,35.40
2023-06-20T14:00:18.489Z,34.90
2023-06-20T14:02:45.773Z,34.90
2023-06-20T14:05:15.891Z,34.90
2023-06-20T14:07:45.017Z,35.30
2023-06-20T14:10:12.141Z,35.00
2023-06-20T14:12:39.009Z,34.90
2023-06-20T14:15:07.050Z,35.80
2023-06-20T14:17:34.796Z,36.80
2023-06-20T14:20:01.771Z,37.20
2023-06-20T14:22:28.633Z,37.40
2023-06-20T14:24:55.522Z,37.00
2023-06-20T14:27:24.513Z,36.40
2023-06-20T14:29:51.704Z,36.60
2023-06-20T14:32:19.221Z,36.40
2023-06-20T14:34:46.271Z,36.10
2023-06-20T14:37:13.735Z,36.30
2023-06-20T14:39:41.981Z,36.60
2023-06-20T14:42:08.952Z,36.20
2023-06-20T14:44:35.888Z,36.10
2023-06-20T14:47:03.052Z,36.00
2023-06-20T14:49:31.172Z,35.90
2023-06-20T14:51:58.044Z,36.00
2023-06-20T14:54:25.292Z,36.00
2023-06-20T14:56:52.288Z,36.00
2023-06-20T14:59:19.240Z,36.00
2023-06-20T15:01:46.252Z,36.30
2023-06-20T15:04:15.157Z,36.20
2023-06-20T15:06:43.460Z,35.90
2023-06-20T15:09:10.602Z,35.60
2023-06-20T15:11:37.480Z,35.80
2023-06-20T15:14:04.424Z,35.60
2023-06-20T15:16:31.417Z,35.90
2023-06-20T15:18:58.609Z,36.20
2023-06-20T15:21:26.076Z,36.20
2023-06-20T15:23:53.358Z,35.90
2023-06-20T15:26:20.835Z,35.40
2023-06-20T15:28:48.076Z,35.20
2023-06-20T15:31:18.417Z,35.00
2023-06-20T15:33:45.346Z,34.90
2023-06-20T15:36:12.287Z,35.00
2023-06-20T15:38:39.229Z,35.30
2023-06-20T15:41:06.260Z,35.60
2023-06-20T15:43:36.738Z,35.50
2023-06-20T15:46:04.850Z,35.30
2023-06-20T15:48:31.900Z,35.30
2023-06-20T15:50:58.961Z,35.10
2023-06-20T15:53:26.205Z,35.40
2023-06-20T15:55:53.166Z,35.40
2023-06-20T15:58:20.067Z,35.30
2023-06-20T16:00:46.951Z,35.10
2023-06-20T16:03:13.989Z,35.20
2023-06-20T16:05:40.971Z,35.20
2023-06-20T16:08:07.817Z,35.00
2023-06-20T16:10:34.769Z,34.60
2023-06-20T16:13:02.241Z,34.40
2023-06-20T16:15:29.180Z,34.20
2023-06-20T16:17:56.103Z,34.20
2023-06-20T16:20:23.011Z,34.20
2023-06-20T16:22:50.441Z,34.30
2023-06-20T16:25:17.489Z,34.50
2023-06-20T16:27:45.026Z,34.10
2023-06-20T16:30:13.053Z,33.60
2023-06-20T16:32:40.146Z,33.40
2023-06-20T16:35:07.466Z,33.10
2023-06-20T16:37:34.331Z,32.70
2023-06-20T16:40:08.236Z,32.50
2023-06-20T16:42:35.400Z,32.30
2023-06-20T16:45:10.720Z,32.00
2023-06-20T16:47:39.944Z,32.20
2023-06-20T16:50:07.961Z,32.30
2023-06-20T16:52:34.941Z,32.40
2023-06-20T16:55:01.864Z,32.50
2023-06-20T16:57:28.719Z,32.60
2023-06-20T16:59:55.684Z,32.50
2023-06-20T17:02:25.584Z,32.60
2023-06-20T17:04:53.117Z,32.70
2023-06-20T17:07:24.535Z,32.70
2023-06-20T17:09:53.649Z,32.80
2023-06-20T17:12:20.571Z,32.80
2023-06-20T17:14:47.485Z,32.80
2023-06-20T17:17:14.489Z,32.60
2023-06-20T17:19:41.446Z,32.60
2023-06-20T17:22:11.511Z,32.40
2023-06-20T17:24:43.651Z,32.30
2023-06-20T17:27:13.739Z,32.20
2023-06-20T17:29:42.023Z,32.10
2023-06-20T17:32:09.594Z,31.90
2023-06-20T17:34:36.626Z,31.70
2023-06-20T17:37:04.176Z,31.60
2023-06-20T17:39:31.063Z,31.60
2023-06-20T17:41:58.137Z,31.60
2023-06-20T17:44:25.048Z,31.50
2023-06-20T17:46:56.492Z,31.50
2023-06-20T17:49:26.693Z,31.50
2023-06-20T17:51:53.560Z,31.40
2023-06-20T17:54:21.522Z,31.20
2023-06-20T17:56:49.744Z,31.10
2023-06-20T17:59:17.036Z,31.00
2023-06-20T18:01:44.014Z,30.80
2023-06-20T18:04:12.783Z,30.80
2023-06-20T18:06:40.844Z,30.70
2023-06-20T18:09:08.220Z,30.50
2023-06-20T18:11:35.189Z,30.30
2023-06-20T18:14:02.096Z,30.10
2023-06-20T18:16:29.152Z,30.00
2023-06-20T18:18:56.098Z,29.80
2023-06-20T18:21:23.024Z,29.70
2023-06-20T18:23:50.064Z,29.60
2023-06-20T18:26:17.091Z,29.60
2023-06-20T18:28:43.958Z,29.40
2023-06-20T18:31:11.002Z,29.30
2023-06-20T18:33:39.728Z,29.20
2023-06-20T18:36:08.075Z,29.10
2023-06-20T18:38:35.134Z,29.00
2023-06-20T18:41:02.054Z,28.70
2023-06-20T18:43:29.055Z,28.70
2023-06-20T18:45:56.733Z,28.60
2023-06-20T18:48:23.641Z,28.60
2023-06-20T18:50:53.127Z,28.50
2023-06-20T18:53:20.740Z,28.40
2023-06-20T18:55:47.769Z,28.30
2023-06-20T18:58:15.747Z,28.10
2023-06-20T19:00:42.694Z,28.00
2023-06-20T19:03:13.359Z,27.90
2023-06-20T19:05:40.885Z,27.80
2023-06-20T19:08:08.180Z,27.70
2023-06-20T19:10:35.232Z,27.70
2023-06-20T19:13:03.247Z,27.60
2023-06-20T19:15:30.788Z,27.50
2023-06-20T19:17:58.157Z,27.50
2023-06-20T19:20:26.640Z,27.50
2023-06-20T19:22:56.094Z,27.40
2023-06-20T19:25:23.227Z,27.30
2023-06-20T19:27:50.302Z,27.20
2023-06-20T19:30:20.749Z,27.10
2023-06-20T19:32:48.689Z,27.00
2023-06-20T19:35:16.655Z,26.90
2023-06-20T19:37:44.229Z,26.90
2023-06-20T19:40:11.576Z,26.90
2023-06-20T19:42:38.622Z,26.90
2023-06-20T19:45:06.591Z,26.90
2023-06-20T19:47:33.508Z,26.90
2023-06-20T19:50:00.403Z,26.80
2023-06-20T19:52:27.440Z,26.70
2023-06-20T19:54:54.376Z,26.60
2023-06-20T19:57:21.267Z,26.60
2023-06-20T19:59:48.660Z,26.50
2023-06-20T20:02:24.239Z,26.50
2023-06-20T20:04:51.311Z,26.40
2023-06-20T20:07:18.470Z,26.40
2023-06-20T20:09:45.687Z,26.40
2023-06-20T20:12:13.525Z,26.30
2023-06-20T20:14:40.746Z,25.80
2023-06-20T20:17:08.313Z,25.60
2023-06-20T20:19:35.241Z,25.20
2023-06-20T20:22:02.145Z,24.90
2023-06-20T20:24:29.052Z,24.60
2023-06-20T20:26:55.989Z,24.40
2023-06-20T20:29:23.658Z,24.00
2023-06-20T20:31:51.074Z,23.90
2023-06-20T20:34:18.641Z,23.70
2023-06-20T20:36:45.607Z,23.60
2023-06-20T20:39:15.396Z,23.60
2023-06-20T20:41:43.073Z,23.60
2023-06-20T20:44:10.609Z,23.60
2023-06-20T20:46:37.533Z,23.50
2023-06-20T20:49:04.789Z,23.40
2023-06-20T20:51:33.599Z,23.40
2023-06-20T20:54:00.940Z,23.30
2023-06-20T20:56:27.855Z,23.30
2023-06-20T20:58:55.277Z,23.20
2023-06-20T21:01:22.371Z,23.20
2023-06-20T21:03:50.112Z,23.10
2023-06-20T21:06:17.377Z,22.80
2023-06-20T21:08:44.342Z,22.70
2023-06-20T21:11:11.643Z,22.70
2023-06-20T21:13:38.574Z,22.70
2023-06-20T21:16:05.464Z,22.60
2023-06-20T21:18:32.389Z,22.50
2023-06-20T21:20:59.393Z,22.40
2023-06-20T21:23:26.490Z,22.40
2023-06-20T21:25:53.480Z,22.40
2023-06-20T21:28:20.409Z,22.30
2023-06-20T21:30:47.355Z,22.40
2023-06-20T21:33:14.303Z,22.40
2023-06-20T21:35:42.840Z,22.40
2023-06-20T21:38:11.161Z,22.00
2023-06-20T21:40:38.087Z,22.00
2023-06-20T21:43:05.326Z,22.00
2023-06-20T21:45:32.215Z,22.10
2023-06-20T21:47:59.145Z,22.10
2023-06-20T21:50:26.496Z,22.20
2023-06-20T21:52:53.758Z,22.10
2023-06-20T21:55:20.729Z,22.10
2023-06-20T21:57:47.904Z,22.10
2023-06-20T22:00:16.010Z,22.20
2023-06-20T22:02:43.321Z,22.20
2023-06-20T22:05:10.759Z,22.20
2023-06-20T22:07:37.873Z,22.20
2023-06-20T22:10:06.528Z,22.20
2023-06-20T22:12:33.986Z,22.10
2023-06-20T22:15:02.337Z,22.10
2023-06-20T22:17:30.889Z,22.10
2023-06-20T22:19:57.917Z,22.20
2023-06-20T22:22:24.868Z,22.20
2023-06-20T22:24:51.736Z,22.00
2023-06-20T22:27:18.766Z,22.00
2023-06-20T22:29:45.663Z,22.10
2023-06-20T22:32:12.630Z,22.10
2023-06-20T22:34:39.515Z,22.10
2023-06-20T22:37:06.592Z,22.10
2023-06-20T22:39:33.452Z,22.00
2023-06-20T22:42:00.482Z,21.90
2023-06-20T22:44:28.354Z,21.40
2023-06-20T22:46:58.425Z,21.20
2023-06-20T22:49:26.104Z,21.30
2023-06-20T22:51:53.622Z,21.30
2023-06-20T22:54:25.119Z,21.30
2023-06-20T22:56:53.075Z,21.40
2023-06-20T22:59:21.021Z,21.30
2023-06-20T23:01:48.616Z,21.40
2023-06-20T23:04:15.611Z,21.40
2023-06-20T23:06:42.515Z,21.30
2023-06-20T23:09:09.382Z,21.30
2023-06-20T23:11:36.978Z,21.30
2023-06-20T23:14:04.729Z,21.30
2023-06-20T23:16:32.497Z,21.30
2023-06-20T23:18:59.603Z,21.30
2023-06-20T23:21:26.921Z,21.30
2023-06-20T23:23:54.061Z,21.30
2023-06-20T23:26:22.227Z,21.10
2023-06-20T23:28:51.072Z,21.10
2023-06-20T23:31:19.262Z,21.10
2023-06-20T23:33:46.363Z,21.10
2023-06-20T23:36:16.940Z,21.10
2023-06-20T23:38:44.891Z,21.10
2023-06-20T23:41:11.825Z,21.00
2023-06-20T23:43:38.680Z,21.00
2023-06-20T23:46:43.035Z,21.00
2023-06-20T23:50:06.355Z,20.90
2023-06-20T23:52:33.717Z,20.90
2023-06-20T23:55:01.371Z,20.90
2023-06-20T23:57:32.563Z,21.00
